createdAt,value
2023-03-15T00:00:13.144Z,98547.05
2023-03-15T00:03:06.691Z,98551.29
2023-03-15T00:05:35.586Z,98549.36
2023-03-15T00:08:05.297Z,98552.36
2023-03-15T00:10:34.157Z,98559.63
2023-03-15T00:13:03.451Z,98559.99
2023-03-15T00:15:33.972Z,98563.32
2023-03-15T00:18:03.545Z,98564.39
2023-03-15T00:20:33.298Z,98573.93
2023-03-15T00:23:02.373Z,98579.40
2023-03-15T00:25:32.278Z,98586.48
2023-03-15T00:28:01.262Z,98590.34
2023-03-15T00:30:30.040Z,98590.48
2023-03-15T00:32:59.649Z,98595.43
2023-03-15T00:35:28.344Z,98595.98
2023-03-15T00:37:57.495Z,98600.56
2023-03-15T00:40:26.236Z,98612.36
2023-03-15T00:45:02.905Z,98647.72
2023-03-15T00:47:31.665Z,98664.13
2023-03-15T00:50:00.324Z,98677.26
2023-03-15T00:52:36.213Z,98689.52
2023-03-15T00:55:05.778Z,98711.92
2023-03-15T00:57:37.417Z,98731.09
2023-03-15T01:00:09.126Z,98748.33
2023-03-15T01:02:38.198Z,98775.11
2023-03-15T01:05:08.824Z,98793.09
2023-03-15T01:07:37.576Z,98799.59
2023-03-15T01:10:07.661Z,98808.82
2023-03-15T01:12:36.241Z,98821.73
2023-03-15T01:15:12.330Z,98834.86
2023-03-15T01:17:41.945Z,98843.48
2023-03-15T01:20:14.854Z,98847.48
2023-03-15T01:22:43.705Z,98856.76
2023-03-15T01:25:12.301Z,98870.17
2023-03-15T01:27:41.067Z,98875.10
2023-03-15T01:30:10.473Z,98886.73
2023-03-15T01:32:39.143Z,98884.25
2023-03-15T01:35:08.265Z,98896.92
2023-03-15T01:37:36.964Z,98909.23
2023-03-15T01:40:06.882Z,98922.92
2023-03-15T01:42:52.487Z,98929.67
2023-03-15T01:45:58.921Z,98936.18
2023-03-15T01:48:45.028Z,98938.27
2023-03-15T01:51:22.747Z,98950.05
2023-03-15T01:54:02.877Z,98969.66
2023-03-15T01:56:34.495Z,98996.32
2023-03-15T01:59:07.388Z,98999.90
2023-03-15T02:01:37.645Z,99004.85
2023-03-15T02:04:12.534Z,99010.83
2023-03-15T02:06:47.128Z,99025.45
2023-03-15T02:16:23.055Z,99081.76
2023-03-15T02:18:52.164Z,99083.98
2023-03-15T02:21:42.485Z,99090.43
2023-03-15T02:24:33.749Z,99093.89
2023-03-15T02:27:02.397Z,99099.50
2023-03-15T02:29:31.473Z,99111.14
2023-03-15T02:32:00.879Z,99130.73
2023-03-15T02:34:29.731Z,99133.17
2023-03-15T02:36:58.481Z,99144.30
2023-03-15T02:39:27.563Z,99152.30
2023-03-15T02:41:59.050Z,99167.57
2023-03-15T02:44:32.951Z,99173.94
2023-03-15T02:47:09.116Z,99180.42
2023-03-15T02:49:43.237Z,99191.14
2023-03-15T02:52:14.311Z,99196.95
2023-03-15T02:54:46.111Z,99200.21
2023-03-15T02:57:17.165Z,99201.38
2023-03-15T02:59:46.043Z,99205.93
2023-03-15T03:02:14.961Z,99210.25
2023-03-15T03:04:51.014Z,99216.45
2023-03-15T03:07:24.099Z,99217.36
2023-03-15T03:09:53.018Z,99225.36
2023-03-15T03:12:21.916Z,99235.65
2023-03-15T03:14:51.513Z,99238.20
2023-03-15T03:17:20.486Z,99246.02
2023-03-15T03:19:49.178Z,99250.93
2023-03-15T03:22:18.487Z,99252.09
2023-03-15T03:24:47.422Z,99258.27
2023-03-15T03:27:16.378Z,99268.55
2023-03-15T03:29:45.340Z,99270.11
2023-03-15T03:32:14.118Z,99275.73
2023-03-15T03:34:48.774Z,99289.17
2023-03-15T03:37:19.083Z,99304.20
2023-03-15T03:40:08.210Z,99311.27
2023-03-15T03:42:37.080Z,99311.94
2023-03-15T03:45:06.222Z,99308.42
2023-03-15T03:54:13.155Z,99338.54
2023-03-15T03:56:41.991Z,99344.10
2023-03-15T03:59:11.043Z,99348.61
2023-03-15T04:01:41.992Z,99352.08
2023-03-15T04:04:14.390Z,99356.06
2023-03-15T04:06:46.281Z,99353.34
2023-03-15T04:09:18.420Z,99351.41
2023-03-15T04:11:46.961Z,99349.62
2023-03-15T04:14:16.181Z,99357.58
2023-03-15T04:16:44.988Z,99369.20
2023-03-15T04:19:13.738Z,99374.88
2023-03-15T04:21:47.801Z,99376.22
2023-03-15T04:24:22.173Z,99381.70
2023-03-15T04:26:58.180Z,99377.63
2023-03-15T04:29:27.010Z,99382.80
2023-03-15T04:32:01.983Z,99391.19
2023-03-15T04:34:31.785Z,99392.05
2023-03-15T04:37:00.373Z,99401.44
2023-03-15T04:39:28.974Z,99401.95
2023-03-15T04:41:57.714Z,99406.84
2023-03-15T04:44:27.061Z,99412.04
2023-03-15T04:46:56.272Z,99412.44
2023-03-15T04:49:25.056Z,99407.94
2023-03-15T04:51:53.668Z,99404.64
2023-03-15T04:54:23.611Z,99408.88
2023-03-15T04:56:52.497Z,99415.19
2023-03-15T04:59:20.988Z,99435.22
2023-03-15T05:01:50.024Z,99449.08
2023-03-15T05:04:19.769Z,99441.71
2023-03-15T05:06:48.444Z,99430.23
2023-03-15T05:09:19.497Z,99431.50
2023-03-15T05:11:48.313Z,99431.66
2023-03-15T05:14:17.098Z,99442.14
2023-03-15T05:16:47.855Z,99457.77
2023-03-15T05:19:16.579Z,99467.68
2023-03-15T05:21:45.206Z,99478.95
2023-03-15T05:24:14.802Z,99480.88
2023-03-15T05:26:46.679Z,99485.73
2023-03-15T05:29:16.126Z,99486.60
2023-03-15T05:31:44.808Z,99487.23
2023-03-15T05:34:13.517Z,99489.99
2023-03-15T05:36:44.933Z,99486.77
2023-03-15T05:39:16.973Z,99483.79
2023-03-15T05:41:45.768Z,99482.81
2023-03-15T05:44:14.944Z,99484.27
2023-03-15T05:46:44.558Z,99484.63
2023-03-15T05:49:13.632Z,99498.02
2023-03-15T05:51:43.045Z,99507.58
2023-03-15T05:54:12.172Z,99515.11
2023-03-15T05:56:41.579Z,99523.95
2023-03-15T05:59:11.165Z,99531.02
2023-03-15T06:01:43.126Z,99542.19
2023-03-15T06:04:12.467Z,99546.61
2023-03-15T06:06:41.764Z,99548.48
2023-03-15T06:09:11.205Z,99556.69
2023-03-15T06:11:43.658Z,99561.18
2023-03-15T06:14:12.423Z,99568.78
2023-03-15T06:16:41.579Z,99575.21
2023-03-15T06:19:10.568Z,99578.67
2023-03-15T06:21:42.714Z,99588.02
2023-03-15T06:24:11.934Z,99591.36
2023-03-15T06:26:41.036Z,99597.10
2023-03-15T06:29:14.943Z,99604.43
2023-03-15T06:31:44.670Z,99613.41
2023-03-15T06:34:13.684Z,99618.99
2023-03-15T06:36:45.902Z,99623.65
2023-03-15T06:39:15.535Z,99629.08
2023-03-15T06:41:44.599Z,99632.32
2023-03-15T06:44:13.827Z,99637.49
2023-03-15T06:46:43.015Z,99651.26
2023-03-15T06:49:11.930Z,99652.30
2023-03-15T06:51:43.125Z,99652.40
2023-03-15T06:54:12.277Z,99663.52
2023-03-15T06:56:41.670Z,99670.39
2023-03-15T06:59:13.303Z,99670.16
2023-03-15T07:01:42.882Z,99670.48
2023-03-15T07:04:12.183Z,99683.33
2023-03-15T07:06:43.706Z,99684.89
2023-03-15T07:09:31.762Z,99678.18
2023-03-15T07:12:01.891Z,99678.41
2023-03-15T07:14:32.106Z,99679.77
2023-03-15T07:17:01.776Z,99681.58
2023-03-15T07:19:32.764Z,99688.06
2023-03-15T07:22:01.885Z,99688.29
2023-03-15T07:24:33.167Z,99682.95
2023-03-15T07:27:02.519Z,99688.86
2023-03-15T07:29:33.264Z,99687.22
2023-03-15T07:32:02.118Z,99697.86
2023-03-15T07:34:31.509Z,99696.86
2023-03-15T07:37:19.452Z,99696.70
2023-03-15T07:40:09.910Z,99697.68
2023-03-15T07:48:59.910Z,99701.78
2023-03-15T07:51:29.386Z,99706.70
2023-03-15T07:53:59.223Z,99713.52
2023-03-15T07:56:28.325Z,99726.60
2023-03-15T07:58:57.066Z,99734.02
2023-03-15T08:01:26.565Z,99739.23
2023-03-15T08:03:55.418Z,99749.16
2023-03-15T08:06:24.740Z,99754.19
2023-03-15T08:08:53.328Z,99754.09
2023-03-15T08:18:01.136Z,99767.33
2023-03-15T08:20:30.838Z,99767.92
2023-03-15T08:22:59.948Z,99776.41
2023-03-15T08:25:28.865Z,99787.48
2023-03-15T08:27:57.863Z,99794.69
2023-03-15T08:30:29.683Z,99797.44
2023-03-15T08:32:58.881Z,99800.08
2023-03-15T08:35:28.400Z,99809.41
2023-03-15T08:37:57.234Z,99818.14
2023-03-15T08:40:25.856Z,99820.74
2023-03-15T08:42:58.448Z,99828.46
2023-03-15T08:45:28.293Z,99831.92
2023-03-15T08:47:59.047Z,99836.25
2023-03-15T08:59:31.725Z,99854.48
2023-03-15T09:02:01.708Z,99852.81
2023-03-15T09:04:30.778Z,99855.83
2023-03-15T09:06:59.329Z,99856.56
2023-03-15T09:09:27.962Z,99858.33
2023-03-15T09:11:56.818Z,99859.61
2023-03-15T09:14:25.170Z,99863.88
2023-03-15T09:16:53.631Z,99870.80
2023-03-15T09:19:22.251Z,99873.55
2023-03-15T09:21:51.490Z,99878.23
2023-03-15T09:24:20.188Z,99874.27
2023-03-15T09:26:48.540Z,99876.38
2023-03-15T09:29:17.037Z,99879.07
2023-03-15T09:31:45.610Z,99880.42
2023-03-15T09:34:14.386Z,99879.77
2023-03-15T09:36:42.736Z,99883.30
2023-03-15T09:39:11.487Z,99876.55
2023-03-15T09:41:50.054Z,99875.25
2023-03-15T09:44:42.462Z,99873.08
2023-03-15T09:47:10.993Z,99870.05
2023-03-15T09:49:47.572Z,99875.89
2023-03-15T09:52:33.897Z,99872.56
2023-03-15T09:55:15.239Z,99874.21
2023-03-15T09:57:57.106Z,99874.84
2023-03-15T10:00:41.317Z,99874.10
2023-03-15T10:03:21.926Z,99878.45
2023-03-15T10:05:58.033Z,99883.14
2023-03-15T10:08:28.270Z,99879.80
2023-03-15T10:11:06.094Z,99883.48
2023-03-15T10:13:59.105Z,99885.11
2023-03-15T10:16:50.702Z,99884.21
2023-03-15T10:19:52.795Z,99884.29
2023-03-15T10:23:02.605Z,99883.01
2023-03-15T10:25:33.434Z,99883.77
2023-03-15T10:28:09.953Z,99877.79
2023-03-15T10:30:42.699Z,99881.29
2023-03-15T10:33:34.835Z,99876.46
2023-03-15T10:36:19.008Z,99878.23
2023-03-15T10:38:49.598Z,99877.35
2023-03-15T10:41:44.855Z,99878.50
2023-03-15T10:44:23.611Z,99882.16
2023-03-15T10:47:22.511Z,99882.17
2023-03-15T10:49:59.756Z,99877.16
2023-03-15T10:52:40.143Z,99878.02
2023-03-15T10:55:21.547Z,99879.17
2023-03-15T10:57:56.653Z,99877.23
2023-03-15T11:00:32.322Z,99883.67
2023-03-15T11:03:08.133Z,99879.05
2023-03-15T11:05:46.734Z,99881.73
2023-03-15T11:08:18.781Z,99875.32
2023-03-15T11:10:56.462Z,99879.39
2023-03-15T11:13:28.342Z,99886.48
2023-03-15T11:16:22.176Z,99880.28
2023-03-15T11:19:02.159Z,99874.79
2023-03-15T11:21:33.910Z,99884.49
2023-03-15T11:24:06.119Z,99885.21
2023-03-15T11:26:39.966Z,99885.15
2023-03-15T11:29:18.618Z,99881.96
2023-03-15T11:31:47.462Z,99879.61
2023-03-15T11:34:30.541Z,99888.92
2023-03-15T11:37:08.517Z,99883.67
2023-03-15T11:40:05.003Z,99883.38
2023-03-15T11:42:59.596Z,99877.91
2023-03-15T11:46:09.185Z,99883.55
2023-03-15T11:49:22.705Z,99880.89
2023-03-15T11:51:51.809Z,99884.45
2023-03-15T11:54:31.215Z,99884.52
2023-03-15T11:57:07.012Z,99888.35
2023-03-15T11:59:38.713Z,99890.13
2023-03-15T12:02:10.841Z,99891.98
2023-03-15T12:04:46.233Z,99893.94
2023-03-15T12:07:24.142Z,99895.31
2023-03-15T12:10:02.775Z,99892.02
2023-03-15T12:12:31.108Z,99893.05
2023-03-15T12:15:15.063Z,99898.73
2023-03-15T12:17:58.509Z,99897.04
2023-03-15T12:20:39.382Z,99901.27
2023-03-15T12:23:31.357Z,99901.09
2023-03-15T12:26:07.353Z,99910.54
2023-03-15T12:28:41.594Z,99911.13
2023-03-15T12:31:13.687Z,99916.92
2023-03-15T12:33:58.825Z,99918.53
2023-03-15T12:36:30.815Z,99921.97
2023-03-15T12:39:10.335Z,99927.01
2023-03-15T12:41:41.762Z,99932.27
2023-03-15T12:44:22.459Z,99931.73
2023-03-15T12:46:50.805Z,99935.50
2023-03-15T12:49:25.106Z,99943.15
2023-03-15T12:51:58.184Z,99949.44
2023-03-15T12:55:14.095Z,99951.25
2023-03-15T12:57:54.252Z,99950.62
2023-03-15T13:00:25.607Z,99954.47
2023-03-15T13:03:04.416Z,99958.27
2023-03-15T13:05:47.064Z,99957.27
2023-03-15T13:08:24.039Z,99961.52
2023-03-15T13:11:01.465Z,99964.38
2023-03-15T13:14:20.954Z,99962.64
2023-03-15T13:17:17.525Z,99962.56
2023-03-15T13:19:50.542Z,99966.24
2023-03-15T13:22:41.280Z,99964.80
2023-03-15T13:25:25.805Z,99977.64
2023-03-15T13:28:12.477Z,99980.41
2023-03-15T13:30:47.276Z,99985.31
2023-03-15T13:33:27.722Z,99985.84
2023-03-15T13:36:01.302Z,99988.07
2023-03-15T13:38:57.881Z,99988.02
2023-03-15T13:41:31.138Z,99993.08
2023-03-15T13:44:05.397Z,99991.38
2023-03-15T13:46:33.860Z,99999.83
2023-03-15T13:49:02.268Z,100005.19
2023-03-15T13:51:33.607Z,100004.02
2023-03-15T13:54:24.986Z,100003.27
2023-03-15T13:57:17.403Z,100008.14
2023-03-15T13:59:52.934Z,100010.08
2023-03-15T14:02:28.071Z,100011.78
2023-03-15T14:05:10.461Z,100019.73
2023-03-15T14:07:45.757Z,100023.73
2023-03-15T14:10:40.129Z,100024.33
2023-03-15T14:13:25.911Z,100024.89
2023-03-15T14:16:02.110Z,100019.58
2023-03-15T14:18:42.988Z,100023.48
2023-03-15T14:21:22.236Z,100029.85
2023-03-15T14:23:51.017Z,100029.92
2023-03-15T14:26:23.784Z,100034.37
2023-03-15T14:29:00.168Z,100035.39
2023-03-15T14:31:35.834Z,100034.86
2023-03-15T14:34:33.791Z,100037.62
2023-03-15T14:37:10.110Z,100039.96
2023-03-15T14:39:42.024Z,100041.58
2023-03-15T14:42:13.655Z,100042.58
2023-03-15T14:44:42.135Z,100045.43
2023-03-15T14:53:46.909Z,100057.83
2023-03-15T14:56:16.501Z,100060.44
2023-03-15T14:58:45.722Z,100062.39
2023-03-15T15:01:20.680Z,100062.85
2023-03-15T15:04:00.093Z,100061.08
2023-03-15T15:06:32.138Z,100061.19
2023-03-15T15:09:01.749Z,100061.28
2023-03-15T15:11:30.427Z,100067.27
2023-03-15T15:13:59.140Z,100065.97
2023-03-15T15:16:28.584Z,100068.34
2023-03-15T15:18:57.121Z,100067.17
2023-03-15T15:21:31.792Z,100065.89
2023-03-15T15:24:05.036Z,100067.79
2023-03-15T15:26:34.718Z,100074.69
2023-03-15T15:29:03.334Z,100075.48
2023-03-15T15:31:34.660Z,100073.32
2023-03-15T15:34:03.278Z,100082.96
2023-03-15T15:36:35.865Z,100083.89
2023-03-15T15:39:11.462Z,100087.95
2023-03-15T15:41:40.150Z,100091.77
2023-03-15T15:44:16.323Z,100098.80
2023-03-15T15:46:44.811Z,100103.57
2023-03-15T15:49:13.861Z,100108.71
2023-03-15T15:51:51.720Z,100110.34
2023-03-15T15:54:24.597Z,100111.95
2023-03-15T15:57:00.939Z,100117.04
2023-03-15T15:59:30.987Z,100117.11
2023-03-15T16:02:01.524Z,100122.54
2023-03-15T16:04:31.195Z,100127.88
2023-03-15T16:07:02.698Z,100127.71
2023-03-15T16:09:36.256Z,100128.34
2023-03-15T16:12:13.337Z,100126.14
2023-03-15T16:14:42.128Z,100126.03
2023-03-15T16:17:18.550Z,100128.40
2023-03-15T16:19:48.033Z,100133.09
2023-03-15T16:22:21.995Z,100135.41
2023-03-15T16:24:53.897Z,100137.32
2023-03-15T16:27:26.198Z,100142.69
2023-03-15T16:29:56.093Z,100141.27
2023-03-15T16:32:37.247Z,100143.52
2023-03-15T16:35:16.603Z,100145.66
2023-03-15T16:37:46.916Z,100146.47
2023-03-15T16:40:26.927Z,100148.17
2023-03-15T16:42:56.294Z,100153.55
2023-03-15T16:45:25.447Z,100155.79
2023-03-15T16:47:56.661Z,100160.02
2023-03-15T16:50:25.427Z,100161.08
2023-03-15T16:52:57.340Z,100166.22
2023-03-15T16:55:29.147Z,100167.69
2023-03-15T16:57:57.950Z,100176.93
2023-03-15T17:00:26.417Z,100177.65
2023-03-15T17:02:55.099Z,100178.90
2023-03-15T17:05:24.945Z,100180.38
2023-03-15T17:07:55.465Z,100183.77
2023-03-15T17:10:29.398Z,100188.66
2023-03-15T17:13:01.119Z,100189.49
2023-03-15T17:15:30.964Z,100191.10
2023-03-15T17:18:00.757Z,100186.31
2023-03-15T17:20:30.235Z,100188.73
2023-03-15T17:23:04.969Z,100188.23
2023-03-15T17:25:34.952Z,100194.95
2023-03-15T17:28:05.704Z,100193.79
2023-03-15T17:30:36.926Z,100196.20
2023-03-15T17:33:06.954Z,100197.66
2023-03-15T17:35:41.294Z,100195.80
2023-03-15T17:38:18.072Z,100201.21
2023-03-15T17:40:49.163Z,100211.85
2023-03-15T17:43:22.269Z,100214.96
2023-03-15T17:45:52.626Z,100216.41
2023-03-15T17:48:21.224Z,100215.13
2023-03-15T17:50:50.562Z,100216.13
2023-03-15T17:53:22.235Z,100219.21
2023-03-15T17:55:53.908Z,100223.41
2023-03-15T17:58:25.170Z,100228.24
2023-03-15T18:05:21.339Z,100231.34
2023-03-15T18:07:58.541Z,100233.25
2023-03-15T18:10:37.219Z,100233.89
2023-03-15T18:13:06.082Z,100229.20
2023-03-15T18:15:34.563Z,100228.21
2023-03-15T18:18:06.142Z,100236.05
2023-03-15T18:20:35.568Z,100240.92
2023-03-15T18:23:05.567Z,100244.94
2023-03-15T18:25:35.851Z,100247.83
2023-03-15T18:28:04.780Z,100248.90
2023-03-15T18:30:34.007Z,100256.85
2023-03-15T18:33:04.744Z,100262.86
2023-03-15T18:35:36.674Z,100264.54
2023-03-15T18:38:06.082Z,100267.36
2023-03-15T18:40:35.222Z,100268.24
2023-03-15T18:43:05.994Z,100270.52
2023-03-15T18:45:36.472Z,100274.02
2023-03-15T18:48:05.032Z,100275.19
2023-03-15T18:50:34.871Z,100280.14
2023-03-15T18:53:06.408Z,100279.38
2023-03-15T18:55:39.056Z,100278.91
2023-03-15T18:58:15.310Z,100276.34
2023-03-15T19:00:44.731Z,100281.44
2023-03-15T19:03:13.779Z,100283.58
2023-03-15T19:05:43.029Z,100286.95
2023-03-15T19:08:12.101Z,100284.23
2023-03-15T19:10:44.887Z,100289.77
2023-03-15T19:13:15.234Z,100290.38
2023-03-15T19:15:51.512Z,100296.14
2023-03-15T19:18:20.090Z,100297.64
2023-03-15T19:20:49.095Z,100296.82
2023-03-15T19:23:20.841Z,100290.89
2023-03-15T19:25:51.684Z,100296.24
2023-03-15T19:28:22.777Z,100294.73
2023-03-15T19:30:52.621Z,100297.80
2023-03-15T19:33:24.120Z,100295.70
2023-03-15T19:35:55.876Z,100300.06
2023-03-15T19:38:36.512Z,100303.51
2023-03-15T19:41:12.791Z,100306.08
2023-03-15T19:43:43.936Z,100307.28
2023-03-15T19:46:20.028Z,100302.81
2023-03-15T19:48:56.267Z,100305.75
2023-03-15T19:51:28.724Z,100306.24
2023-03-15T19:53:58.132Z,100309.63
2023-03-15T19:56:29.090Z,100312.18
2023-03-15T19:58:58.699Z,100310.23
2023-03-15T20:01:28.002Z,100314.53
2023-03-15T20:04:00.261Z,100316.48
2023-03-15T20:06:31.368Z,100318.54
2023-03-15T20:09:21.185Z,100317.88
2023-03-15T20:11:50.103Z,100319.25
2023-03-15T20:14:20.875Z,100321.67
2023-03-15T20:16:50.306Z,100322.01
2023-03-15T20:19:20.643Z,100323.39
2023-03-15T20:26:19.152Z,100324.70
2023-03-15T20:29:06.681Z,100329.02
2023-03-15T20:31:39.555Z,100329.50
2023-03-15T20:34:09.600Z,100327.55
2023-03-15T20:36:39.223Z,100328.63
2023-03-15T20:39:08.460Z,100329.74
2023-03-15T20:41:39.612Z,100331.77
2023-03-15T20:44:10.091Z,100331.98
2023-03-15T20:46:41.284Z,100331.22
2023-03-15T20:49:11.993Z,100332.81
2023-03-15T20:55:53.885Z,100342.98
2023-03-15T20:58:25.622Z,100339.08
2023-03-15T21:01:07.641Z,100339.19
2023-03-15T21:03:37.649Z,100340.74
2023-03-15T21:06:08.216Z,100344.77
2023-03-15T21:08:40.949Z,100347.87
2023-03-15T21:11:10.495Z,100347.71
2023-03-15T21:13:39.948Z,100348.39
2023-03-15T21:16:10.190Z,100349.74
2023-03-15T21:18:46.157Z,100359.39
2023-03-15T21:21:15.855Z,100359.73
2023-03-15T21:23:45.612Z,100357.77
2023-03-15T21:26:15.984Z,100360.52
2023-03-15T21:28:49.223Z,100363.70
2023-03-15T21:31:18.451Z,100364.70
2023-03-15T21:33:50.676Z,100369.29
2023-03-15T21:36:20.892Z,100372.72
2023-03-15T21:38:50.432Z,100376.58
2023-03-15T21:45:45.262Z,100380.84
2023-03-15T21:48:13.842Z,100380.02
2023-03-15T21:50:43.649Z,100380.33
2023-03-15T21:53:13.162Z,100385.37
2023-03-15T21:55:42.562Z,100386.99
2023-03-15T21:58:12.171Z,100388.89
2023-03-15T22:00:43.263Z,100389.41
2023-03-15T22:03:16.997Z,100389.07
2023-03-15T22:05:49.219Z,100390.47
2023-03-15T22:08:20.207Z,100393.38
2023-03-15T22:10:59.244Z,100394.15
2023-03-15T22:13:30.570Z,100394.36
2023-03-15T22:16:02.258Z,100401.59
2023-03-15T22:18:39.321Z,100406.14
2023-03-15T22:21:11.204Z,100411.55
2023-03-15T22:23:42.133Z,100411.64
2023-03-15T22:28:35.580Z,100416.87
2023-03-15T22:31:04.111Z,100417.50
2023-03-15T22:33:32.513Z,100416.30
2023-03-15T22:36:03.937Z,100423.66
2023-03-15T22:38:38.222Z,100426.67
2023-03-15T22:41:10.504Z,100429.52
2023-03-15T22:43:39.235Z,100433.57
2023-03-15T22:46:07.903Z,100431.48
2023-03-15T22:48:36.489Z,100431.33
2023-03-15T22:51:08.568Z,100430.19
2023-03-15T22:53:37.100Z,100433.23
2023-03-15T22:56:06.692Z,100435.90
2023-03-15T22:58:35.857Z,100442.38
2023-03-15T23:01:04.512Z,100446.17
2023-03-15T23:03:33.253Z,100449.38
2023-03-15T23:06:01.803Z,100450.29
2023-03-15T23:08:30.198Z,100452.86
2023-03-15T23:10:59.207Z,100454.90
2023-03-15T23:13:27.676Z,100454.98
2023-03-15T23:15:56.241Z,100464.03
2023-03-15T23:18:24.719Z,100468.33
2023-03-15T23:20:53.033Z,100471.00
2023-03-15T23:23:22.191Z,100470.91
2023-03-15T23:25:51.261Z,100475.60
2023-03-15T23:28:22.240Z,100476.06
2023-03-15T23:30:51.092Z,100479.08
2023-03-15T23:33:19.517Z,100483.14
2023-03-15T23:35:48.065Z,100488.49
2023-03-15T23:38:16.688Z,100489.59
2023-03-15T23:40:45.650Z,100494.39
2023-03-15T23:43:14.465Z,100493.33
2023-03-15T23:45:43.022Z,100494.13
2023-03-15T23:48:12.740Z,100496.41
2023-03-15T23:50:44.758Z,100499.04
2023-03-15T23:53:13.274Z,100500.46
2023-03-15T23:55:41.847Z,100495.62
2023-03-15T23:58:10.687Z,100492.98
